Página principal
METAR-TAF:

METAR-TAF

Aeroportos :

Inverness, Escócia

latitude: 57-32N, longitude: 004-03W, altura: 9 m

Observação actual do tempo

O boletim foi feito há 40 minutos, às 06:20 UTC
Vento 6 kt de oes-sudoeste
Temperatura 3°C
Humidade 93%
Pressão 1024 hPa
Visibilidade 10 km ou mais
Nuvens dispersasa uma altura de 4000 ft

METAR: EGPE 100620Z 24006KT 9999 SCT040 03/02 Q1024

Hora: 07:00 (07:00 UTC)

Previsão

O boletim foi feito há 2 horas e 1 minutos, às 04:59 UTC
Previsão válida de 10 às 06 UTC a 10 às 15 UTC
Vento 5 kt de oes-sudoeste
Visibilidade 10 km ou mais
Nuvens dispersasa uma altura de 3000 ft

TAF: EGPE 100459Z 1006/1015 24005KT 9999 SCT030

Observações e previsões do tempo de mais de 4000 aeroportos (mensagens METAR e TAF).

As estações disponíveis são os pontos amarelos e vermelhos sobre o mapa.

Mova o rato sobre o mapa para ver o nome da estação.

Depois clique no ponto para visualizar as observações e previsões meteorológicas.

Para alterar o mapa : clique nos botões verdes com uma cruz preta para aumentar o zoom; no botão verde com uma pitada de zoom; ou nas setas verdes para mapas adjacentes.


METAR-TAF: